sensor_id;sensor_type;location;lat;lon;timestamp;P1;durP1;ratioP1;P2;durP2;ratioP2
52564;SDS011;38460;53.106;7.004;2023-02-27T00:00:31;3.50;;;2.13;;
52564;SDS011;38460;53.106;7.004;2023-02-27T00:02:57;5.22;;;2.10;;
52564;SDS011;38460;53.106;7.004;2023-02-27T00:05:23;5.43;;;1.83;;
52564;SDS011;38460;53.106;7.004;2023-02-27T00:07:49;3.90;;;2.10;;
52564;SDS011;38460;53.106;7.004;2023-02-27T00:10:15;5.03;;;2.20;;
52564;SDS011;38460;53.106;7.004;2023-02-27T00:12:41;3.22;;;2.13;;
52564;SDS011;38460;53.106;7.004;2023-02-27T00:15:09;3.72;;;2.08;;
52564;SDS011;38460;53.106;7.004;2023-02-27T00:17:37;6.22;;;2.25;;
52564;SDS011;38460;53.106;7.004;2023-02-27T00:20:03;6.43;;;2.30;;
52564;SDS011;38460;53.106;7.004;2023-02-27T00:22:31;4.88;;;2.40;;
52564;SDS011;38460;53.106;7.004;2023-02-27T00:24:57;4.68;;;2.10;;
52564;SDS011;38460;53.106;7.004;2023-02-27T00:27:23;4.40;;;2.20;;
52564;SDS011;38460;53.106;7.004;2023-02-27T00:29:48;3.28;;;1.75;;
52564;SDS011;38460;53.106;7.004;2023-02-27T00:32:14;4.10;;;1.90;;
52564;SDS011;38460;53.106;7.004;2023-02-27T00:34:40;3.58;;;1.75;;
52564;SDS011;38460;53.106;7.004;2023-02-27T00:37:06;3.88;;;2.10;;
52564;SDS011;38460;53.106;7.004;2023-02-27T00:39:32;7.90;;;2.20;;
52564;SDS011;38460;53.106;7.004;2023-02-27T00:41:57;3.58;;;1.90;;
52564;SDS011;38460;53.106;7.004;2023-02-27T00:44:23;4.43;;;2.75;;
52564;SDS011;38460;53.106;7.004;2023-02-27T00:46:49;4.65;;;1.85;;
52564;SDS011;38460;53.106;7.004;2023-02-27T00:49:15;3.47;;;2.17;;
52564;SDS011;38460;53.106;7.004;2023-02-27T00:51:41;3.67;;;1.88;;
52564;SDS011;38460;53.106;7.004;2023-02-27T00:54:06;3.72;;;1.92;;
52564;SDS011;38460;53.106;7.004;2023-02-27T00:56:33;3.63;;;1.90;;
52564;SDS011;38460;53.106;7.004;2023-02-27T00:58:59;5.32;;;1.90;;
52564;SDS011;38460;53.106;7.004;2023-02-27T01:01:25;4.57;;;1.92;;
52564;SDS011;38460;53.106;7.004;2023-02-27T01:03:50;5.18;;;2.00;;
52564;SDS011;38460;53.106;7.004;2023-02-27T01:06:16;3.42;;;1.65;;
52564;SDS011;38460;53.106;7.004;2023-02-27T01:08:42;6.38;;;2.20;;
52564;SDS011;38460;53.106;7.004;2023-02-27T01:11:08;5.30;;;2.47;;
52564;SDS011;38460;53.106;7.004;2023-02-27T01:13:33;3.78;;;2.58;;
52564;SDS011;38460;53.106;7.004;2023-02-27T01:15:59;7.03;;;3.22;;
52564;SDS011;38460;53.106;7.004;2023-02-27T01:18:25;5.60;;;2.05;;
52564;SDS011;38460;53.106;7.004;2023-02-27T01:20:51;3.35;;;2.00;;
52564;SDS011;38460;53.106;7.004;2023-02-27T01:23:18;3.45;;;2.20;;
52564;SDS011;38460;53.106;7.004;2023-02-27T01:25:45;4.53;;;2.35;;
52564;SDS011;38460;53.106;7.004;2023-02-27T01:28:11;5.60;;;2.45;;
52564;SDS011;38460;53.106;7.004;2023-02-27T01:30:37;6.75;;;2.47;;
52564;SDS011;38460;53.106;7.004;2023-02-27T01:33:05;4.47;;;1.83;;
52564;SDS011;38460;53.106;7.004;2023-02-27T01:35:31;4.00;;;2.13;;
52564;SDS011;38460;53.106;7.004;2023-02-27T01:37:56;3.92;;;1.77;;
52564;SDS011;38460;53.106;7.004;2023-02-27T01:40:22;7.40;;;2.35;;
52564;SDS011;38460;53.106;7.004;2023-02-27T01:42:48;4.25;;;2.10;;
52564;SDS011;38460;53.106;7.004;2023-02-27T01:47:52;3.85;;;2.35;;
52564;SDS011;38460;53.106;7.004;2023-02-27T01:50:22;3.87;;;2.17;;
52564;SDS011;38460;53.106;7.004;2023-02-27T01:52:50;5.38;;;2.30;;
52564;SDS011;38460;53.106;7.004;2023-02-27T01:55:20;3.05;;;2.10;;
52564;SDS011;38460;53.106;7.004;2023-02-27T01:57:47;5.70;;;2.70;;
52564;SDS011;38460;53.106;7.004;2023-02-27T02:00:14;4.82;;;2.45;;
52564;SDS011;38460;53.106;7.004;2023-02-27T02:02:45;7.45;;;3.63;;
52564;SDS011;38460;53.106;7.004;2023-02-27T02:05:17;6.63;;;2.70;;
52564;SDS011;38460;53.106;7.004;2023-02-27T02:07:44;6.45;;;2.45;;
52564;SDS011;38460;53.106;7.004;2023-02-27T02:10:11;4.25;;;3.30;;
52564;SDS011;38460;53.106;7.004;2023-02-27T02:12:38;4.32;;;2.63;;
52564;SDS011;38460;53.106;7.004;2023-02-27T02:15:05;4.53;;;2.30;;
52564;SDS011;38460;53.106;7.004;2023-02-27T02:29:03;7.10;;;2.65;;
52564;SDS011;38460;53.106;7.004;2023-02-27T02:39:56;4.72;;;2.92;;
52564;SDS011;38460;53.106;7.004;2023-02-27T02:43:06;6.22;;;2.63;;
52564;SDS011;38460;53.106;7.004;2023-02-27T02:45:39;5.03;;;2.67;;
52564;SDS011;38460;53.106;7.004;2023-02-27T02:56:06;4.88;;;2.60;;
52564;SDS011;38460;53.106;7.004;2023-02-27T03:01:25;6.03;;;2.53;;
52564;SDS011;38460;53.106;7.004;2023-02-27T03:06:56;5.30;;;2.55;;
52564;SDS011;38460;53.106;7.004;2023-02-27T03:09:51;5.05;;;2.63;;
52564;SDS011;38460;53.106;7.004;2023-02-27T03:12:30;5.60;;;2.70;;
52564;SDS011;38460;53.106;7.004;2023-02-27T03:15:01;5.18;;;2.92;;
52564;SDS011;38460;53.106;7.004;2023-02-27T03:17:38;5.18;;;2.80;;
52564;SDS011;38460;53.106;7.004;2023-02-27T03:20:25;3.72;;;2.40;;
52564;SDS011;38460;53.106;7.004;2023-02-27T03:22:56;6.63;;;2.65;;
52564;SDS011;38460;53.106;7.004;2023-02-27T03:25:25;4.70;;;2.80;;
52564;SDS011;38460;53.106;7.004;2023-02-27T03:27:54;4.70;;;2.60;;
52564;SDS011;38460;53.106;7.004;2023-02-27T03:30:31;7.45;;;2.80;;
52564;SDS011;38460;53.106;7.004;2023-02-27T03:33:16;6.53;;;2.88;;
52564;SDS011;38460;53.106;7.004;2023-02-27T03:41:31;5.25;;;2.65;;
52564;SDS011;38460;53.106;7.004;2023-02-27T03:44:18;5.45;;;3.08;;
52564;SDS011;38460;53.106;7.004;2023-02-27T03:46:55;7.80;;;2.85;;
52564;SDS011;38460;53.106;7.004;2023-02-27T03:49:20;5.75;;;2.50;;
52564;SDS011;38460;53.106;7.004;2023-02-27T03:51:47;5.50;;;2.92;;
52564;SDS011;38460;53.106;7.004;2023-02-27T03:54:14;4.63;;;3.00;;
52564;SDS011;38460;53.106;7.004;2023-02-27T03:56:43;6.10;;;3.50;;
52564;SDS011;38460;53.106;7.004;2023-02-27T03:59:15;3.92;;;2.35;;
52564;SDS011;38460;53.106;7.004;2023-02-27T04:01:41;8.02;;;3.15;;
52564;SDS011;38460;53.106;7.004;2023-02-27T04:04:12;4.60;;;2.55;;
52564;SDS011;38460;53.106;7.004;2023-02-27T04:06:41;4.85;;;2.47;;
52564;SDS011;38460;53.106;7.004;2023-02-27T04:12:33;4.95;;;2.55;;
52564;SDS011;38460;53.106;7.004;2023-02-27T04:21:33;8.70;;;3.00;;
52564;SDS011;38460;53.106;7.004;2023-02-27T04:26:29;5.60;;;3.08;;
52564;SDS011;38460;53.106;7.004;2023-02-27T04:32:23;4.25;;;2.65;;
52564;SDS011;38460;53.106;7.004;2023-02-27T04:34:52;7.30;;;3.53;;
52564;SDS011;38460;53.106;7.004;2023-02-27T04:37:24;4.50;;;3.03;;
52564;SDS011;38460;53.106;7.004;2023-02-27T04:40:41;4.93;;;2.70;;
52564;SDS011;38460;53.106;7.004;2023-02-27T04:42:53;5.82;;;2.63;;
52564;SDS011;38460;53.106;7.004;2023-02-27T04:45:22;7.20;;;3.30;;
52564;SDS011;38460;53.106;7.004;2023-02-27T04:47:55;7.55;;;3.10;;
52564;SDS011;38460;53.106;7.004;2023-02-27T04:50:27;4.70;;;3.28;;
52564;SDS011;38460;53.106;7.004;2023-02-27T04:53:02;5.15;;;3.45;;
52564;SDS011;38460;53.106;7.004;2023-02-27T04:55:41;7.63;;;3.03;;
52564;SDS011;38460;53.106;7.004;2023-02-27T04:58:25;4.72;;;2.47;;
52564;SDS011;38460;53.106;7.004;2023-02-27T05:01:25;6.70;;;3.00;;
52564;SDS011;38460;53.106;7.004;2023-02-27T05:03:59;7.03;;;3.88;;
52564;SDS011;38460;53.106;7.004;2023-02-27T05:06:29;6.85;;;3.20;;
52564;SDS011;38460;53.106;7.004;2023-02-27T05:09:05;7.10;;;2.80;;
52564;SDS011;38460;53.106;7.004;2023-02-27T05:17:50;3.67;;;2.50;;
52564;SDS011;38460;53.106;7.004;2023-02-27T05:20:01;4.78;;;2.90;;
52564;SDS011;38460;53.106;7.004;2023-02-27T05:28:12;6.80;;;3.47;;
52564;SDS011;38460;53.106;7.004;2023-02-27T05:34:05;6.90;;;3.58;;
52564;SDS011;38460;53.106;7.004;2023-02-27T05:36:51;7.30;;;3.07;;
52564;SDS011;38460;53.106;7.004;2023-02-27T05:39:21;8.30;;;3.50;;
52564;SDS011;38460;53.106;7.004;2023-02-27T05:41:51;6.30;;;3.30;;
52564;SDS011;38460;53.106;7.004;2023-02-27T05:44:24;6.82;;;3.25;;
52564;SDS011;38460;53.106;7.004;2023-02-27T05:46:59;6.28;;;3.20;;
52564;SDS011;38460;53.106;7.004;2023-02-27T05:49:32;8.63;;;2.97;;
52564;SDS011;38460;53.106;7.004;2023-02-27T05:52:06;4.82;;;3.10;;
52564;SDS011;38460;53.106;7.004;2023-02-27T05:57:43;4.97;;;2.47;;
52564;SDS011;38460;53.106;7.004;2023-02-27T06:02:56;6.32;;;3.30;;
52564;SDS011;38460;53.106;7.004;2023-02-27T06:05:23;5.90;;;3.20;;
52564;SDS011;38460;53.106;7.004;2023-02-27T06:07:49;7.55;;;3.22;;
52564;SDS011;38460;53.106;7.004;2023-02-27T06:10:16;5.70;;;3.00;;
52564;SDS011;38460;53.106;7.004;2023-02-27T06:12:43;5.57;;;3.42;;
52564;SDS011;38460;53.106;7.004;2023-02-27T06:15:09;6.80;;;3.03;;
52564;SDS011;38460;53.106;7.004;2023-02-27T06:17:36;7.05;;;3.00;;
52564;SDS011;38460;53.106;7.004;2023-02-27T06:20:03;5.13;;;3.05;;
52564;SDS011;38460;53.106;7.004;2023-02-27T06:22:33;5.55;;;2.80;;
52564;SDS011;38460;53.106;7.004;2023-02-27T06:24:59;4.22;;;2.72;;
52564;SDS011;38460;53.106;7.004;2023-02-27T06:27:24;5.28;;;3.22;;
52564;SDS011;38460;53.106;7.004;2023-02-27T06:29:53;6.07;;;2.85;;
52564;SDS011;38460;53.106;7.004;2023-02-27T06:32:19;7.32;;;3.40;;
52564;SDS011;38460;53.106;7.004;2023-02-27T06:34:47;6.18;;;3.30;;
52564;SDS011;38460;53.106;7.004;2023-02-27T06:37:13;5.15;;;3.20;;
52564;SDS011;38460;53.106;7.004;2023-02-27T06:39:39;5.43;;;3.03;;
52564;SDS011;38460;53.106;7.004;2023-02-27T06:42:05;10.65;;;5.03;;
52564;SDS011;38460;53.106;7.004;2023-02-27T06:44:30;11.68;;;3.97;;
52564;SDS011;38460;53.106;7.004;2023-02-27T06:46:56;8.95;;;3.72;;
52564;SDS011;38460;53.106;7.004;2023-02-27T06:49:22;9.15;;;3.97;;
52564;SDS011;38460;53.106;7.004;2023-02-27T06:51:47;8.85;;;3.55;;
52564;SDS011;38460;53.106;7.004;2023-02-27T06:54:13;7.15;;;4.10;;
52564;SDS011;38460;53.106;7.004;2023-02-27T06:56:39;8.07;;;3.50;;
52564;SDS011;38460;53.106;7.004;2023-02-27T06:59:05;7.25;;;4.22;;
52564;SDS011;38460;53.106;7.004;2023-02-27T07:01:31;13.95;;;4.13;;
52564;SDS011;38460;53.106;7.004;2023-02-27T07:03:56;9.93;;;4.10;;
52564;SDS011;38460;53.106;7.004;2023-02-27T07:06:22;7.70;;;3.80;;
52564;SDS011;38460;53.106;7.004;2023-02-27T07:08:51;11.77;;;4.43;;
52564;SDS011;38460;53.106;7.004;2023-02-27T07:11:16;7.93;;;3.97;;
52564;SDS011;38460;53.106;7.004;2023-02-27T07:13:42;11.27;;;3.95;;
52564;SDS011;38460;53.106;7.004;2023-02-27T07:16:08;9.52;;;4.35;;
52564;SDS011;38460;53.106;7.004;2023-02-27T07:18:34;10.15;;;5.22;;
52564;SDS011;38460;53.106;7.004;2023-02-27T07:21:00;9.15;;;4.75;;
52564;SDS011;38460;53.106;7.004;2023-02-27T07:23:25;8.63;;;4.50;;
52564;SDS011;38460;53.106;7.004;2023-02-27T07:25:51;9.23;;;4.38;;
52564;SDS011;38460;53.106;7.004;2023-02-27T07:28:17;8.55;;;3.83;;
52564;SDS011;38460;53.106;7.004;2023-02-27T07:30:43;8.93;;;4.70;;
52564;SDS011;38460;53.106;7.004;2023-02-27T07:33:09;7.30;;;4.53;;
52564;SDS011;38460;53.106;7.004;2023-02-27T07:35:35;9.10;;;5.22;;
52564;SDS011;38460;53.106;7.004;2023-02-27T07:38:01;9.35;;;4.00;;
52564;SDS011;38460;53.106;7.004;2023-02-27T07:40:27;6.55;;;4.22;;
52564;SDS011;38460;53.106;7.004;2023-02-27T07:42:53;7.35;;;4.65;;
52564;SDS011;38460;53.106;7.004;2023-02-27T07:45:19;7.13;;;3.92;;
52564;SDS011;38460;53.106;7.004;2023-02-27T07:47:46;8.10;;;4.38;;
52564;SDS011;38460;53.106;7.004;2023-02-27T07:50:12;8.82;;;4.47;;
52564;SDS011;38460;53.106;7.004;2023-02-27T07:52:39;7.53;;;4.05;;
52564;SDS011;38460;53.106;7.004;2023-02-27T07:55:05;7.18;;;4.10;;
52564;SDS011;38460;53.106;7.004;2023-02-27T07:57:32;10.68;;;4.55;;
52564;SDS011;38460;53.106;7.004;2023-02-27T07:59:57;7.88;;;3.97;;
52564;SDS011;38460;53.106;7.004;2023-02-27T08:02:24;10.95;;;4.28;;
52564;SDS011;38460;53.106;7.004;2023-02-27T08:04:49;10.35;;;4.43;;
52564;SDS011;38460;53.106;7.004;2023-02-27T08:07:16;7.63;;;3.95;;
52564;SDS011;38460;53.106;7.004;2023-02-27T08:09:42;10.32;;;4.07;;
52564;SDS011;38460;53.106;7.004;2023-02-27T08:12:08;9.70;;;3.90;;
52564;SDS011;38460;53.106;7.004;2023-02-27T08:14:34;8.88;;;3.80;;
52564;SDS011;38460;53.106;7.004;2023-02-27T08:17:03;9.48;;;4.40;;
52564;SDS011;38460;53.106;7.004;2023-02-27T08:19:29;10.65;;;4.78;;
52564;SDS011;38460;53.106;7.004;2023-02-27T08:21:55;9.38;;;4.53;;
52564;SDS011;38460;53.106;7.004;2023-02-27T08:24:20;8.35;;;4.55;;
52564;SDS011;38460;53.106;7.004;2023-02-27T08:26:46;14.48;;;4.90;;
52564;SDS011;38460;53.106;7.004;2023-02-27T08:29:12;7.90;;;4.40;;
52564;SDS011;38460;53.106;7.004;2023-02-27T08:31:38;10.30;;;3.88;;
52564;SDS011;38460;53.106;7.004;2023-02-27T08:34:04;7.28;;;3.65;;
52564;SDS011;38460;53.106;7.004;2023-02-27T08:36:30;6.03;;;3.17;;
52564;SDS011;38460;53.106;7.004;2023-02-27T08:38:56;6.80;;;3.60;;
52564;SDS011;38460;53.106;7.004;2023-02-27T08:41:22;8.77;;;3.58;;
52564;SDS011;38460;53.106;7.004;2023-02-27T08:43:48;9.90;;;3.20;;
52564;SDS011;38460;53.106;7.004;2023-02-27T08:46:14;8.35;;;3.70;;
52564;SDS011;38460;53.106;7.004;2023-02-27T08:48:40;6.47;;;3.05;;
52564;SDS011;38460;53.106;7.004;2023-02-27T08:51:07;9.68;;;3.42;;
52564;SDS011;38460;53.106;7.004;2023-02-27T08:53:33;5.28;;;2.72;;
52564;SDS011;38460;53.106;7.004;2023-02-27T08:55:59;6.25;;;3.10;;
52564;SDS011;38460;53.106;7.004;2023-02-27T08:58:25;6.35;;;2.85;;
52564;SDS011;38460;53.106;7.004;2023-02-27T09:00:52;8.05;;;3.20;;
52564;SDS011;38460;53.106;7.004;2023-02-27T09:03:18;10.82;;;3.60;;
52564;SDS011;38460;53.106;7.004;2023-02-27T09:05:46;8.68;;;3.55;;
52564;SDS011;38460;53.106;7.004;2023-02-27T09:08:12;7.57;;;3.67;;
52564;SDS011;38460;53.106;7.004;2023-02-27T09:10:39;6.78;;;3.83;;
52564;SDS011;38460;53.106;7.004;2023-02-27T09:13:05;8.70;;;3.47;;
52564;SDS011;38460;53.106;7.004;2023-02-27T09:15:30;7.63;;;2.85;;
52564;SDS011;38460;53.106;7.004;2023-02-27T09:17:58;8.10;;;3.70;;
52564;SDS011;38460;53.106;7.004;2023-02-27T09:20:30;9.07;;;3.65;;
52564;SDS011;38460;53.106;7.004;2023-02-27T09:22:57;5.20;;;2.90;;
52564;SDS011;38460;53.106;7.004;2023-02-27T09:25:23;9.10;;;3.00;;
52564;SDS011;38460;53.106;7.004;2023-02-27T09:27:50;8.18;;;3.10;;
52564;SDS011;38460;53.106;7.004;2023-02-27T09:30:15;6.00;;;2.50;;
52564;SDS011;38460;53.106;7.004;2023-02-27T09:32:41;9.70;;;2.72;;
52564;SDS011;38460;53.106;7.004;2023-02-27T09:35:07;9.10;;;3.20;;
52564;SDS011;38460;53.106;7.004;2023-02-27T09:37:33;4.00;;;1.95;;
52564;SDS011;38460;53.106;7.004;2023-02-27T09:39:59;9.07;;;2.10;;
52564;SDS011;38460;53.106;7.004;2023-02-27T09:42:32;6.50;;;2.10;;
52564;SDS011;38460;53.106;7.004;2023-02-27T09:45:11;5.55;;;1.92;;
52564;SDS011;38460;53.106;7.004;2023-02-27T09:47:43;6.65;;;1.98;;
52564;SDS011;38460;53.106;7.004;2023-02-27T09:52:46;5.15;;;2.35;;
52564;SDS011;38460;53.106;7.004;2023-02-27T09:55:19;6.22;;;2.10;;
52564;SDS011;38460;53.106;7.004;2023-02-27T09:57:57;7.60;;;2.30;;
52564;SDS011;38460;53.106;7.004;2023-02-27T10:00:47;5.35;;;1.98;;
52564;SDS011;38460;53.106;7.004;2023-02-27T10:06:52;7.13;;;2.38;;
52564;SDS011;38460;53.106;7.004;2023-02-27T10:09:11;4.15;;;1.67;;
52564;SDS011;38460;53.106;7.004;2023-02-27T10:16:56;4.60;;;1.40;;
52564;SDS011;38460;53.106;7.004;2023-02-27T10:19:27;5.65;;;1.70;;
52564;SDS011;38460;53.106;7.004;2023-02-27T10:21:56;5.85;;;1.98;;
52564;SDS011;38460;53.106;7.004;2023-02-27T10:24:30;5.93;;;1.70;;
52564;SDS011;38460;53.106;7.004;2023-02-27T10:27:15;3.15;;;1.48;;
52564;SDS011;38460;53.106;7.004;2023-02-27T10:29:43;5.05;;;1.38;;
52564;SDS011;38460;53.106;7.004;2023-02-27T10:35:06;6.25;;;1.23;;
52564;SDS011;38460;53.106;7.004;2023-02-27T10:37:37;3.95;;;1.35;;
52564;SDS011;38460;53.106;7.004;2023-02-27T10:40:12;3.95;;;1.15;;
52564;SDS011;38460;53.106;7.004;2023-02-27T10:42:39;3.40;;;1.05;;
52564;SDS011;38460;53.106;7.004;2023-02-27T10:45:05;4.13;;;1.00;;
52564;SDS011;38460;53.106;7.004;2023-02-27T10:47:36;3.47;;;1.15;;
52564;SDS011;38460;53.106;7.004;2023-02-27T10:50:03;4.78;;;1.05;;
52564;SDS011;38460;53.106;7.004;2023-02-27T10:52:52;1.70;;;0.90;;
52564;SDS011;38460;53.106;7.004;2023-02-27T10:55:25;1.48;;;0.80;;
52564;SDS011;38460;53.106;7.004;2023-02-27T10:57:53;1.88;;;0.70;;
52564;SDS011;38460;53.106;7.004;2023-02-27T11:00:23;2.28;;;0.80;;
52564;SDS011;38460;53.106;7.004;2023-02-27T11:02:54;1.27;;;0.50;;
52564;SDS011;38460;53.106;7.004;2023-02-27T11:05:28;3.95;;;0.90;;
52564;SDS011;38460;53.106;7.004;2023-02-27T11:08:12;2.17;;;0.90;;
52564;SDS011;38460;53.106;7.004;2023-02-27T11:11:02;3.70;;;1.20;;
52564;SDS011;38460;53.106;7.004;2023-02-27T11:13:38;2.30;;;0.70;;
52564;SDS011;38460;53.106;7.004;2023-02-27T11:16:11;1.85;;;0.77;;
52564;SDS011;38460;53.106;7.004;2023-02-27T11:18:47;3.15;;;0.82;;
52564;SDS011;38460;53.106;7.004;2023-02-27T11:26:34;3.40;;;1.20;;
52564;SDS011;38460;53.106;7.004;2023-02-27T11:29:12;2.45;;;1.00;;
52564;SDS011;38460;53.106;7.004;2023-02-27T11:31:44;2.80;;;1.00;;
52564;SDS011;38460;53.106;7.004;2023-02-27T11:36:48;4.07;;;1.10;;
52564;SDS011;38460;53.106;7.004;2023-02-27T11:39:24;2.55;;;0.90;;
52564;SDS011;38460;53.106;7.004;2023-02-27T11:41:57;3.33;;;1.40;;
52564;SDS011;38460;53.106;7.004;2023-02-27T11:44:29;3.33;;;1.05;;
52564;SDS011;38460;53.106;7.004;2023-02-27T11:47:06;2.40;;;1.10;;
52564;SDS011;38460;53.106;7.004;2023-02-27T11:49:56;2.75;;;1.70;;
52564;SDS011;38460;53.106;7.004;2023-02-27T11:52:53;4.82;;;1.05;;
52564;SDS011;38460;53.106;7.004;2023-02-27T11:55:24;1.63;;;1.00;;
52564;SDS011;38460;53.106;7.004;2023-02-27T11:57:55;3.90;;;1.05;;
52564;SDS011;38460;53.106;7.004;2023-02-27T12:00:35;2.67;;;1.05;;
52564;SDS011;38460;53.106;7.004;2023-02-27T12:05:48;2.45;;;0.85;;
52564;SDS011;38460;53.106;7.004;2023-02-27T12:11:06;1.38;;;0.73;;
52564;SDS011;38460;53.106;7.004;2023-02-27T12:14:17;2.92;;;0.90;;
52564;SDS011;38460;53.106;7.004;2023-02-27T12:16:50;1.45;;;0.80;;
52564;SDS011;38460;53.106;7.004;2023-02-27T12:22:05;4.20;;;1.05;;
52564;SDS011;38460;53.106;7.004;2023-02-27T12:24:46;4.22;;;0.95;;
52564;SDS011;38460;53.106;7.004;2023-02-27T12:27:27;4.38;;;1.30;;
52564;SDS011;38460;53.106;7.004;2023-02-27T12:30:11;1.73;;;0.85;;
52564;SDS011;38460;53.106;7.004;2023-02-27T12:32:47;1.92;;;0.90;;
52564;SDS011;38460;53.106;7.004;2023-02-27T12:35:36;3.10;;;1.00;;
52564;SDS011;38460;53.106;7.004;2023-02-27T12:38:03;2.63;;;0.70;;
52564;SDS011;38460;53.106;7.004;2023-02-27T12:40:36;3.25;;;0.80;;
52564;SDS011;38460;53.106;7.004;2023-02-27T12:43:09;3.03;;;1.20;;
52564;SDS011;38460;53.106;7.004;2023-02-27T12:48:25;2.03;;;0.93;;
52564;SDS011;38460;53.106;7.004;2023-02-27T12:56:18;0.85;;;0.63;;
52564;SDS011;38460;53.106;7.004;2023-02-27T13:04:17;1.38;;;0.65;;
52564;SDS011;38460;53.106;7.004;2023-02-27T13:06:49;1.33;;;0.70;;
52564;SDS011;38460;53.106;7.004;2023-02-27T13:12:02;1.48;;;0.80;;
52564;SDS011;38460;53.106;7.004;2023-02-27T13:17:07;2.00;;;1.15;;
52564;SDS011;38460;53.106;7.004;2023-02-27T13:19:49;1.60;;;0.73;;
52564;SDS011;38460;53.106;7.004;2023-02-27T13:22:24;2.00;;;0.73;;
52564;SDS011;38460;53.106;7.004;2023-02-27T13:25:16;1.95;;;0.63;;
52564;SDS011;38460;53.106;7.004;2023-02-27T13:27:43;1.20;;;0.60;;
52564;SDS011;38460;53.106;7.004;2023-02-27T13:35:50;3.10;;;0.65;;
52564;SDS011;38460;53.106;7.004;2023-02-27T13:38:43;1.55;;;0.60;;
52564;SDS011;38460;53.106;7.004;2023-02-27T13:43:46;1.42;;;0.95;;
52564;SDS011;38460;53.106;7.004;2023-02-27T13:46:26;1.50;;;0.75;;
52564;SDS011;38460;53.106;7.004;2023-02-27T13:56:43;2.15;;;0.70;;
52564;SDS011;38460;53.106;7.004;2023-02-27T13:59:22;1.88;;;0.80;;
52564;SDS011;38460;53.106;7.004;2023-02-27T14:02:02;1.15;;;0.70;;
52564;SDS011;38460;53.106;7.004;2023-02-27T14:04:35;2.85;;;0.77;;
52564;SDS011;38460;53.106;7.004;2023-02-27T14:07:20;3.05;;;0.90;;
52564;SDS011;38460;53.106;7.004;2023-02-27T14:09:50;2.58;;;0.70;;
52564;SDS011;38460;53.106;7.004;2023-02-27T14:12:34;1.50;;;1.05;;
52564;SDS011;38460;53.106;7.004;2023-02-27T14:15:06;2.10;;;0.70;;
52564;SDS011;38460;53.106;7.004;2023-02-27T14:17:57;3.95;;;0.85;;
52564;SDS011;38460;53.106;7.004;2023-02-27T14:28:25;0.98;;;0.75;;
52564;SDS011;38460;53.106;7.004;2023-02-27T14:31:50;3.45;;;1.08;;
52564;SDS011;38460;53.106;7.004;2023-02-27T14:33:59;1.60;;;0.68;;
52564;SDS011;38460;53.106;7.004;2023-02-27T14:37:12;0.98;;;0.93;;
52564;SDS011;38460;53.106;7.004;2023-02-27T14:39:22;1.95;;;0.63;;
52564;SDS011;38460;53.106;7.004;2023-02-27T14:42:02;1.73;;;0.60;;
52564;SDS011;38460;53.106;7.004;2023-02-27T14:44:36;1.42;;;0.80;;
52564;SDS011;38460;53.106;7.004;2023-02-27T14:47:04;1.83;;;0.65;;
52564;SDS011;38460;53.106;7.004;2023-02-27T14:49:31;2.15;;;0.68;;
52564;SDS011;38460;53.106;7.004;2023-02-27T14:54:44;1.75;;;0.77;;
52564;SDS011;38460;53.106;7.004;2023-02-27T14:57:18;1.98;;;0.68;;
52564;SDS011;38460;53.106;7.004;2023-02-27T14:59:47;0.75;;;0.60;;
52564;SDS011;38460;53.106;7.004;2023-02-27T15:02:20;2.55;;;0.93;;
52564;SDS011;38460;53.106;7.004;2023-02-27T15:07:25;3.10;;;0.70;;
52564;SDS011;38460;53.106;7.004;2023-02-27T15:10:00;2.25;;;0.80;;
52564;SDS011;38460;53.106;7.004;2023-02-27T15:12:28;3.20;;;0.88;;
52564;SDS011;38460;53.106;7.004;2023-02-27T15:14:58;2.80;;;0.82;;
52564;SDS011;38460;53.106;7.004;2023-02-27T15:17:27;2.65;;;0.82;;
52564;SDS011;38460;53.106;7.004;2023-02-27T15:20:03;1.83;;;0.68;;
52564;SDS011;38460;53.106;7.004;2023-02-27T15:22:57;2.13;;;0.85;;
52564;SDS011;38460;53.106;7.004;2023-02-27T15:25:32;1.30;;;0.70;;
52564;SDS011;38460;53.106;7.004;2023-02-27T15:28:16;1.80;;;0.88;;
52564;SDS011;38460;53.106;7.004;2023-02-27T15:30:50;2.75;;;0.80;;
52564;SDS011;38460;53.106;7.004;2023-02-27T15:33:18;3.67;;;0.80;;
52564;SDS011;38460;53.106;7.004;2023-02-27T15:35:52;1.60;;;0.80;;
52564;SDS011;38460;53.106;7.004;2023-02-27T15:38:25;1.95;;;0.93;;
52564;SDS011;38460;53.106;7.004;2023-02-27T15:40:55;4.25;;;1.15;;
52564;SDS011;38460;53.106;7.004;2023-02-27T15:43:23;2.50;;;0.70;;
52564;SDS011;38460;53.106;7.004;2023-02-27T15:45:51;4.03;;;1.05;;
52564;SDS011;38460;53.106;7.004;2023-02-27T15:48:17;2.42;;;0.77;;
52564;SDS011;38460;53.106;7.004;2023-02-27T15:50:45;2.50;;;0.90;;
52564;SDS011;38460;53.106;7.004;2023-02-27T15:53:20;1.38;;;0.80;;
52564;SDS011;38460;53.106;7.004;2023-02-27T15:55:50;0.93;;;0.57;;
52564;SDS011;38460;53.106;7.004;2023-02-27T16:01:09;3.10;;;0.77;;
52564;SDS011;38460;53.106;7.004;2023-02-27T16:03:56;2.45;;;0.80;;
52564;SDS011;38460;53.106;7.004;2023-02-27T16:06:34;2.55;;;0.65;;
52564;SDS011;38460;53.106;7.004;2023-02-27T16:09:04;4.93;;;1.13;;
52564;SDS011;38460;53.106;7.004;2023-02-27T16:11:40;2.35;;;0.70;;
52564;SDS011;38460;53.106;7.004;2023-02-27T16:14:34;2.53;;;0.90;;
52564;SDS011;38460;53.106;7.004;2023-02-27T16:17:39;3.20;;;0.80;;
52564;SDS011;38460;53.106;7.004;2023-02-27T16:19:59;4.22;;;1.25;;
52564;SDS011;38460;53.106;7.004;2023-02-27T16:22:26;4.63;;;1.45;;
52564;SDS011;38460;53.106;7.004;2023-02-27T16:25:05;2.47;;;0.90;;
52564;SDS011;38460;53.106;7.004;2023-02-27T16:27:33;2.83;;;1.05;;
52564;SDS011;38460;53.106;7.004;2023-02-27T16:29:59;6.50;;;0.90;;
52564;SDS011;38460;53.106;7.004;2023-02-27T16:32:31;4.43;;;1.00;;
52564;SDS011;38460;53.106;7.004;2023-02-27T16:35:20;1.70;;;0.75;;
52564;SDS011;38460;53.106;7.004;2023-02-27T16:37:47;2.58;;;1.05;;
52564;SDS011;38460;53.106;7.004;2023-02-27T16:40:15;1.77;;;1.02;;
52564;SDS011;38460;53.106;7.004;2023-02-27T16:42:43;5.22;;;0.88;;
52564;SDS011;38460;53.106;7.004;2023-02-27T16:45:12;3.25;;;1.00;;
52564;SDS011;38460;53.106;7.004;2023-02-27T16:47:40;3.20;;;1.10;;
52564;SDS011;38460;53.106;7.004;2023-02-27T16:50:48;3.15;;;1.00;;
52564;SDS011;38460;53.106;7.004;2023-02-27T16:53:01;4.00;;;1.73;;
52564;SDS011;38460;53.106;7.004;2023-02-27T16:55:27;3.22;;;0.90;;
52564;SDS011;38460;53.106;7.004;2023-02-27T16:57:54;2.58;;;0.90;;
52564;SDS011;38460;53.106;7.004;2023-02-27T17:00:20;3.58;;;1.02;;
52564;SDS011;38460;53.106;7.004;2023-02-27T17:02:46;6.55;;;1.20;;
52564;SDS011;38460;53.106;7.004;2023-02-27T17:05:13;2.88;;;1.38;;
52564;SDS011;38460;53.106;7.004;2023-02-27T17:07:39;2.67;;;1.33;;
52564;SDS011;38460;53.106;7.004;2023-02-27T17:10:06;4.22;;;1.10;;
52564;SDS011;38460;53.106;7.004;2023-02-27T17:12:32;2.60;;;1.20;;
52564;SDS011;38460;53.106;7.004;2023-02-27T17:14:58;4.00;;;1.10;;
52564;SDS011;38460;53.106;7.004;2023-02-27T17:17:24;3.25;;;1.05;;
52564;SDS011;38460;53.106;7.004;2023-02-27T17:19:49;4.75;;;1.30;;
52564;SDS011;38460;53.106;7.004;2023-02-27T17:22:15;4.65;;;1.42;;
52564;SDS011;38460;53.106;7.004;2023-02-27T17:24:41;3.65;;;1.30;;
52564;SDS011;38460;53.106;7.004;2023-02-27T17:27:07;2.75;;;1.35;;
52564;SDS011;38460;53.106;7.004;2023-02-27T17:29:33;2.10;;;1.10;;
52564;SDS011;38460;53.106;7.004;2023-02-27T17:32:00;4.28;;;1.48;;
52564;SDS011;38460;53.106;7.004;2023-02-27T17:34:26;4.80;;;1.50;;
52564;SDS011;38460;53.106;7.004;2023-02-27T17:36:52;2.03;;;1.05;;
52564;SDS011;38460;53.106;7.004;2023-02-27T17:39:18;2.33;;;1.02;;
52564;SDS011;38460;53.106;7.004;2023-02-27T17:41:45;4.38;;;1.27;;
52564;SDS011;38460;53.106;7.004;2023-02-27T17:44:11;3.70;;;1.17;;
52564;SDS011;38460;53.106;7.004;2023-02-27T17:46:38;2.88;;;1.15;;
52564;SDS011;38460;53.106;7.004;2023-02-27T17:49:05;3.55;;;1.48;;